sensor_id;sensor_type;location;lat;lon;timestamp;temperature;humidity
11491;DHT22;5802;52.832;4.758;2023-02-12T00:01:13;21.80;45.20
11491;DHT22;5802;52.832;4.758;2023-02-12T00:03:40;21.70;45.10
11491;DHT22;5802;52.832;4.758;2023-02-12T00:06:08;21.70;45.10
11491;DHT22;5802;52.832;4.758;2023-02-12T00:08:35;21.70;45.10
11491;DHT22;5802;52.832;4.758;2023-02-12T00:11:11;21.70;45.10
11491;DHT22;5802;52.832;4.758;2023-02-12T00:13:38;21.70;45.10
11491;DHT22;5802;52.832;4.758;2023-02-12T00:16:08;21.70;45.10
11491;DHT22;5802;52.832;4.758;2023-02-12T00:18:35;21.70;45.00
11491;DHT22;5802;52.832;4.758;2023-02-12T00:21:02;21.70;45.00
11491;DHT22;5802;52.832;4.758;2023-02-12T00:23:29;21.70;45.00
11491;DHT22;5802;52.832;4.758;2023-02-12T00:25:56;21.70;44.90
11491;DHT22;5802;52.832;4.758;2023-02-12T00:28:23;21.70;44.90
11491;DHT22;5802;52.832;4.758;2023-02-12T00:30:50;21.70;44.90
11491;DHT22;5802;52.832;4.758;2023-02-12T00:33:18;21.70;44.90
11491;DHT22;5802;52.832;4.758;2023-02-12T00:35:54;21.70;44.90
11491;DHT22;5802;52.832;4.758;2023-02-12T00:38:21;21.70;44.90
11491;DHT22;5802;52.832;4.758;2023-02-12T00:40:48;21.70;44.80
11491;DHT22;5802;52.832;4.758;2023-02-12T00:43:14;21.70;44.80
11491;DHT22;5802;52.832;4.758;2023-02-12T00:45:41;21.70;44.80
11491;DHT22;5802;52.832;4.758;2023-02-12T00:48:09;21.70;44.80
11491;DHT22;5802;52.832;4.758;2023-02-12T00:50:37;21.70;44.80
11491;DHT22;5802;52.832;4.758;2023-02-12T00:53:05;21.70;44.80
11491;DHT22;5802;52.832;4.758;2023-02-12T00:55:32;21.70;44.80
11491;DHT22;5802;52.832;4.758;2023-02-12T00:57:59;21.70;44.70
11491;DHT22;5802;52.832;4.758;2023-02-12T01:00:26;21.70;44.70
11491;DHT22;5802;52.832;4.758;2023-02-12T01:02:53;21.70;44.70
11491;DHT22;5802;52.832;4.758;2023-02-12T01:05:19;21.70;44.80
11491;DHT22;5802;52.832;4.758;2023-02-12T01:07:49;21.70;44.70
11491;DHT22;5802;52.832;4.758;2023-02-12T01:10:16;21.70;44.70
11491;DHT22;5802;52.832;4.758;2023-02-12T01:12:45;21.70;44.70
11491;DHT22;5802;52.832;4.758;2023-02-12T01:15:12;21.70;45.30
11491;DHT22;5802;52.832;4.758;2023-02-12T01:17:39;21.70;44.60
11491;DHT22;5802;52.832;4.758;2023-02-12T01:20:08;21.70;44.60
11491;DHT22;5802;52.832;4.758;2023-02-12T01:22:36;21.70;44.60
11491;DHT22;5802;52.832;4.758;2023-02-12T01:25:05;21.70;44.60
11491;DHT22;5802;52.832;4.758;2023-02-12T01:27:32;21.70;44.60
11491;DHT22;5802;52.832;4.758;2023-02-12T01:29:59;21.70;44.60
11491;DHT22;5802;52.832;4.758;2023-02-12T01:32:25;21.70;44.60
11491;DHT22;5802;52.832;4.758;2023-02-12T01:34:52;21.70;44.60
11491;DHT22;5802;52.832;4.758;2023-02-12T01:37:19;21.70;44.60
11491;DHT22;5802;52.832;4.758;2023-02-12T01:39:46;21.70;44.60
11491;DHT22;5802;52.832;4.758;2023-02-12T01:42:21;21.70;45.20
11491;DHT22;5802;52.832;4.758;2023-02-12T01:45:41;21.70;44.60
11491;DHT22;5802;52.832;4.758;2023-02-12T01:48:06;21.70;44.60
11491;DHT22;5802;52.832;4.758;2023-02-12T01:50:33;21.60;44.60
11491;DHT22;5802;52.832;4.758;2023-02-12T01:53:00;21.70;44.60
11491;DHT22;5802;52.832;4.758;2023-02-12T01:55:27;21.60;44.50
11491;DHT22;5802;52.832;4.758;2023-02-12T01:57:56;21.70;44.50
11491;DHT22;5802;52.832;4.758;2023-02-12T02:00:24;21.70;44.50
11491;DHT22;5802;52.832;4.758;2023-02-12T02:02:53;21.70;44.40
11491;DHT22;5802;52.832;4.758;2023-02-12T02:05:25;21.70;44.40
11491;DHT22;5802;52.832;4.758;2023-02-12T02:07:53;21.70;44.40
11491;DHT22;5802;52.832;4.758;2023-02-12T02:10:20;21.70;44.40
11491;DHT22;5802;52.832;4.758;2023-02-12T02:12:47;21.70;44.30
11491;DHT22;5802;52.832;4.758;2023-02-12T02:15:33;21.70;44.30
11491;DHT22;5802;52.832;4.758;2023-02-12T02:18:03;21.70;44.20
11491;DHT22;5802;52.832;4.758;2023-02-12T02:23:58;21.70;44.30
11491;DHT22;5802;52.832;4.758;2023-02-12T02:29:45;21.70;44.30
11491;DHT22;5802;52.832;4.758;2023-02-12T02:32:22;21.70;44.30
11491;DHT22;5802;52.832;4.758;2023-02-12T02:34:56;21.70;44.30
11491;DHT22;5802;52.832;4.758;2023-02-12T02:37:27;21.70;44.30
11491;DHT22;5802;52.832;4.758;2023-02-12T02:39:57;21.70;44.20
11491;DHT22;5802;52.832;4.758;2023-02-12T02:42:30;21.70;44.20
11491;DHT22;5802;52.832;4.758;2023-02-12T02:45:03;21.70;44.20
11491;DHT22;5802;52.832;4.758;2023-02-12T02:47:38;21.70;44.20
11491;DHT22;5802;52.832;4.758;2023-02-12T02:50:11;21.70;44.20
11491;DHT22;5802;52.832;4.758;2023-02-12T02:52:42;21.70;44.20
11491;DHT22;5802;52.832;4.758;2023-02-12T02:55:13;21.70;44.20
11491;DHT22;5802;52.832;4.758;2023-02-12T02:57:45;21.70;44.30
11491;DHT22;5802;52.832;4.758;2023-02-12T03:00:16;21.70;44.20
11491;DHT22;5802;52.832;4.758;2023-02-12T03:02:48;21.70;44.20
11491;DHT22;5802;52.832;4.758;2023-02-12T03:05:19;21.70;44.20
11491;DHT22;5802;52.832;4.758;2023-02-12T03:07:51;21.70;44.20
11491;DHT22;5802;52.832;4.758;2023-02-12T03:10:22;21.70;44.20
11491;DHT22;5802;52.832;4.758;2023-02-12T03:12:53;21.70;44.20
11491;DHT22;5802;52.832;4.758;2023-02-12T03:15:24;21.70;44.30
11491;DHT22;5802;52.832;4.758;2023-02-12T03:17:55;21.70;44.20
11491;DHT22;5802;52.832;4.758;2023-02-12T03:20:27;21.70;44.30
11491;DHT22;5802;52.832;4.758;2023-02-12T03:22:57;21.70;44.20
11491;DHT22;5802;52.832;4.758;2023-02-12T03:25:33;21.70;44.20
11491;DHT22;5802;52.832;4.758;2023-02-12T03:28:04;21.70;44.20
11491;DHT22;5802;52.832;4.758;2023-02-12T03:30:40;21.70;44.20
11491;DHT22;5802;52.832;4.758;2023-02-12T03:33:15;21.70;44.20
11491;DHT22;5802;52.832;4.758;2023-02-12T03:35:50;21.70;44.20
11491;DHT22;5802;52.832;4.758;2023-02-12T03:38:27;21.70;44.20
11491;DHT22;5802;52.832;4.758;2023-02-12T03:40:58;21.70;44.20
11491;DHT22;5802;52.832;4.758;2023-02-12T03:43:31;21.70;44.20
11491;DHT22;5802;52.832;4.758;2023-02-12T03:46:01;21.70;44.20
11491;DHT22;5802;52.832;4.758;2023-02-12T03:48:34;21.70;44.40
11491;DHT22;5802;52.832;4.758;2023-02-12T03:51:04;21.70;44.20
11491;DHT22;5802;52.832;4.758;2023-02-12T03:53:37;21.70;44.10
11491;DHT22;5802;52.832;4.758;2023-02-12T03:56:07;21.70;44.00
11491;DHT22;5802;52.832;4.758;2023-02-12T03:58:36;21.70;44.10
11491;DHT22;5802;52.832;4.758;2023-02-12T04:01:05;21.80;44.10
11491;DHT22;5802;52.832;4.758;2023-02-12T04:03:33;21.80;44.10
11491;DHT22;5802;52.832;4.758;2023-02-12T04:06:00;21.80;44.10
11491;DHT22;5802;52.832;4.758;2023-02-12T04:08:27;21.80;44.00
11491;DHT22;5802;52.832;4.758;2023-02-12T04:11:02;21.80;44.00
11491;DHT22;5802;52.832;4.758;2023-02-12T04:13:38;21.80;44.00
11491;DHT22;5802;52.832;4.758;2023-02-12T04:16:16;21.80;43.90
11491;DHT22;5802;52.832;4.758;2023-02-12T04:18:47;21.90;44.00
11491;DHT22;5802;52.832;4.758;2023-02-12T04:21:24;21.80;43.90
11491;DHT22;5802;52.832;4.758;2023-02-12T04:24:01;21.80;43.90
11491;DHT22;5802;52.832;4.758;2023-02-12T04:26:35;21.90;43.90
11491;DHT22;5802;52.832;4.758;2023-02-12T04:29:10;21.90;43.90
11491;DHT22;5802;52.832;4.758;2023-02-12T04:31:46;21.90;43.90
11491;DHT22;5802;52.832;4.758;2023-02-12T04:34:18;21.90;43.80
11491;DHT22;5802;52.832;4.758;2023-02-12T04:36:52;21.90;43.80
11491;DHT22;5802;52.832;4.758;2023-02-12T04:39:22;21.90;43.80
11491;DHT22;5802;52.832;4.758;2023-02-12T04:41:51;21.90;43.80
11491;DHT22;5802;52.832;4.758;2023-02-12T04:44:22;21.90;43.70
11491;DHT22;5802;52.832;4.758;2023-02-12T04:46:49;21.90;43.70
11491;DHT22;5802;52.832;4.758;2023-02-12T04:49:19;21.90;43.70
11491;DHT22;5802;52.832;4.758;2023-02-12T04:51:47;21.90;43.70
11491;DHT22;5802;52.832;4.758;2023-02-12T04:54:15;22.00;43.70
11491;DHT22;5802;52.832;4.758;2023-02-12T04:56:42;22.00;43.70
11491;DHT22;5802;52.832;4.758;2023-02-12T04:59:09;22.00;43.70
11491;DHT22;5802;52.832;4.758;2023-02-12T05:01:36;22.00;43.60
11491;DHT22;5802;52.832;4.758;2023-02-12T05:04:04;22.00;43.70
11491;DHT22;5802;52.832;4.758;2023-02-12T05:06:35;22.00;43.60
11491;DHT22;5802;52.832;4.758;2023-02-12T05:09:02;22.00;43.50
11491;DHT22;5802;52.832;4.758;2023-02-12T05:11:29;22.00;43.40
11491;DHT22;5802;52.832;4.758;2023-02-12T05:13:57;22.00;43.40
11491;DHT22;5802;52.832;4.758;2023-02-12T05:16:24;22.00;43.50
11491;DHT22;5802;52.832;4.758;2023-02-12T05:18:51;22.00;43.40
11491;DHT22;5802;52.832;4.758;2023-02-12T05:21:17;22.10;43.50
11491;DHT22;5802;52.832;4.758;2023-02-12T05:23:45;22.10;43.50
11491;DHT22;5802;52.832;4.758;2023-02-12T05:26:14;22.10;43.50
11491;DHT22;5802;52.832;4.758;2023-02-12T05:28:41;22.10;43.50
11491;DHT22;5802;52.832;4.758;2023-02-12T05:31:08;22.10;43.50
11491;DHT22;5802;52.832;4.758;2023-02-12T05:33:35;22.10;43.50
11491;DHT22;5802;52.832;4.758;2023-02-12T05:36:03;22.10;43.40
11491;DHT22;5802;52.832;4.758;2023-02-12T05:38:31;22.10;43.40
11491;DHT22;5802;52.832;4.758;2023-02-12T05:41:02;22.10;43.40
11491;DHT22;5802;52.832;4.758;2023-02-12T05:43:29;22.10;43.40
11491;DHT22;5802;52.832;4.758;2023-02-12T05:45:57;22.10;43.30
11491;DHT22;5802;52.832;4.758;2023-02-12T05:48:24;22.10;43.50
11491;DHT22;5802;52.832;4.758;2023-02-12T05:50:51;22.10;43.30
11491;DHT22;5802;52.832;4.758;2023-02-12T05:53:18;22.10;43.30
11491;DHT22;5802;52.832;4.758;2023-02-12T05:55:44;22.10;43.30
11491;DHT22;5802;52.832;4.758;2023-02-12T05:58:12;22.20;43.30
11491;DHT22;5802;52.832;4.758;2023-02-12T06:00:39;22.20;43.30
11491;DHT22;5802;52.832;4.758;2023-02-12T06:03:06;22.20;43.30
11491;DHT22;5802;52.832;4.758;2023-02-12T06:05:33;22.20;43.30
11491;DHT22;5802;52.832;4.758;2023-02-12T06:07:59;22.20;43.30
11491;DHT22;5802;52.832;4.758;2023-02-12T06:10:26;22.20;43.90
11491;DHT22;5802;52.832;4.758;2023-02-12T06:12:53;22.20;43.20
11491;DHT22;5802;52.832;4.758;2023-02-12T06:15:21;22.20;43.20
11491;DHT22;5802;52.832;4.758;2023-02-12T06:17:48;22.20;43.20
11491;DHT22;5802;52.832;4.758;2023-02-12T06:20:15;22.20;43.20
11491;DHT22;5802;52.832;4.758;2023-02-12T06:22:42;22.20;43.20
11491;DHT22;5802;52.832;4.758;2023-02-12T06:25:08;22.20;43.10
11491;DHT22;5802;52.832;4.758;2023-02-12T06:27:35;22.20;43.10
11491;DHT22;5802;52.832;4.758;2023-02-12T06:30:02;22.20;43.10
11491;DHT22;5802;52.832;4.758;2023-02-12T06:32:30;22.20;43.10
11491;DHT22;5802;52.832;4.758;2023-02-12T06:34:56;22.20;43.00
11491;DHT22;5802;52.832;4.758;2023-02-12T06:37:23;22.20;43.10
11491;DHT22;5802;52.832;4.758;2023-02-12T06:39:50;22.20;43.00
11491;DHT22;5802;52.832;4.758;2023-02-12T06:42:16;22.20;43.00
11491;DHT22;5802;52.832;4.758;2023-02-12T06:44:43;22.20;43.00
11491;DHT22;5802;52.832;4.758;2023-02-12T06:47:11;22.30;43.00
11491;DHT22;5802;52.832;4.758;2023-02-12T06:49:39;22.30;43.00
11491;DHT22;5802;52.832;4.758;2023-02-12T06:52:05;22.30;43.00
11491;DHT22;5802;52.832;4.758;2023-02-12T06:54:32;22.20;42.90
11491;DHT22;5802;52.832;4.758;2023-02-12T06:56:59;22.20;42.90
11491;DHT22;5802;52.832;4.758;2023-02-12T06:59:25;22.30;42.90
11491;DHT22;5802;52.832;4.758;2023-02-12T07:01:54;22.30;42.90
11491;DHT22;5802;52.832;4.758;2023-02-12T07:04:21;22.30;43.00
11491;DHT22;5802;52.832;4.758;2023-02-12T07:06:49;22.30;42.90
11491;DHT22;5802;52.832;4.758;2023-02-12T07:09:16;22.30;42.90
11491;DHT22;5802;52.832;4.758;2023-02-12T07:11:43;22.30;42.90
11491;DHT22;5802;52.832;4.758;2023-02-12T07:14:13;22.30;42.80
11491;DHT22;5802;52.832;4.758;2023-02-12T07:16:40;22.30;42.80
11491;DHT22;5802;52.832;4.758;2023-02-12T07:19:06;22.30;42.80
11491;DHT22;5802;52.832;4.758;2023-02-12T07:21:33;22.30;42.90
11491;DHT22;5802;52.832;4.758;2023-02-12T07:24:01;22.30;42.80
11491;DHT22;5802;52.832;4.758;2023-02-12T07:26:28;22.30;42.80
11491;DHT22;5802;52.832;4.758;2023-02-12T07:28:55;22.30;42.80
11491;DHT22;5802;52.832;4.758;2023-02-12T07:31:22;22.30;42.70
11491;DHT22;5802;52.832;4.758;2023-02-12T07:33:52;22.30;42.70
11491;DHT22;5802;52.832;4.758;2023-02-12T07:36:20;22.30;42.70
11491;DHT22;5802;52.832;4.758;2023-02-12T07:38:47;22.30;42.80
11491;DHT22;5802;52.832;4.758;2023-02-12T07:41:16;22.30;42.80
11491;DHT22;5802;52.832;4.758;2023-02-12T07:43:45;22.30;42.80
11491;DHT22;5802;52.832;4.758;2023-02-12T07:46:13;22.30;42.80
11491;DHT22;5802;52.832;4.758;2023-02-12T07:48:42;22.30;42.90
11491;DHT22;5802;52.832;4.758;2023-02-12T07:51:11;22.30;42.90
11491;DHT22;5802;52.832;4.758;2023-02-12T07:53:39;22.30;42.90
11491;DHT22;5802;52.832;4.758;2023-02-12T07:56:08;22.30;43.00
11491;DHT22;5802;52.832;4.758;2023-02-12T07:58:37;22.30;43.00
11491;DHT22;5802;52.832;4.758;2023-02-12T08:01:11;22.30;43.00
11491;DHT22;5802;52.832;4.758;2023-02-12T08:03:39;22.30;43.00
11491;DHT22;5802;52.832;4.758;2023-02-12T08:06:07;22.30;43.00
11491;DHT22;5802;52.832;4.758;2023-02-12T08:08:34;22.30;43.00
11491;DHT22;5802;52.832;4.758;2023-02-12T08:11:03;22.30;43.00
11491;DHT22;5802;52.832;4.758;2023-02-12T08:13:31;22.30;43.00
11491;DHT22;5802;52.832;4.758;2023-02-12T08:16:03;22.30;43.00
11491;DHT22;5802;52.832;4.758;2023-02-12T08:18:31;22.30;43.00
11491;DHT22;5802;52.832;4.758;2023-02-12T08:21:02;22.30;43.00
11491;DHT22;5802;52.832;4.758;2023-02-12T08:23:29;22.30;43.30
11491;DHT22;5802;52.832;4.758;2023-02-12T08:26:07;22.30;42.90
11491;DHT22;5802;52.832;4.758;2023-02-12T08:28:35;22.30;43.00
11491;DHT22;5802;52.832;4.758;2023-02-12T08:31:05;22.30;42.50
11491;DHT22;5802;52.832;4.758;2023-02-12T08:33:32;22.30;42.50
11491;DHT22;5802;52.832;4.758;2023-02-12T08:36:04;22.30;42.60
11491;DHT22;5802;52.832;4.758;2023-02-12T08:38:31;22.30;42.70
11491;DHT22;5802;52.832;4.758;2023-02-12T08:41:03;22.30;42.70
11491;DHT22;5802;52.832;4.758;2023-02-12T08:43:30;22.30;42.70
11491;DHT22;5802;52.832;4.758;2023-02-12T08:46:03;22.30;42.70
11491;DHT22;5802;52.832;4.758;2023-02-12T08:48:30;22.30;43.40
11491;DHT22;5802;52.832;4.758;2023-02-12T08:51:03;22.30;42.70
11491;DHT22;5802;52.832;4.758;2023-02-12T08:53:31;22.30;42.70
11491;DHT22;5802;52.832;4.758;2023-02-12T08:55:57;22.30;42.90
11491;DHT22;5802;52.832;4.758;2023-02-12T08:58:24;22.30;42.70
11491;DHT22;5802;52.832;4.758;2023-02-12T09:00:51;22.30;42.70
11491;DHT22;5802;52.832;4.758;2023-02-12T09:03:19;22.30;42.70
11491;DHT22;5802;52.832;4.758;2023-02-12T09:05:46;22.30;42.70
11491;DHT22;5802;52.832;4.758;2023-02-12T09:08:12;22.30;42.70
11491;DHT22;5802;52.832;4.758;2023-02-12T09:10:40;22.30;42.60
11491;DHT22;5802;52.832;4.758;2023-02-12T09:13:08;22.30;42.60
11491;DHT22;5802;52.832;4.758;2023-02-12T09:15:36;22.30;42.60
11491;DHT22;5802;52.832;4.758;2023-02-12T09:18:03;22.40;42.70
11491;DHT22;5802;52.832;4.758;2023-02-12T09:20:32;22.40;42.60
11491;DHT22;5802;52.832;4.758;2023-02-12T09:22:59;22.40;42.60
11491;DHT22;5802;52.832;4.758;2023-02-12T09:25:25;22.40;42.60
11491;DHT22;5802;52.832;4.758;2023-02-12T09:27:53;22.40;42.60
11491;DHT22;5802;52.832;4.758;2023-02-12T09:30:20;22.40;42.60
11491;DHT22;5802;52.832;4.758;2023-02-12T09:32:47;22.40;42.60
11491;DHT22;5802;52.832;4.758;2023-02-12T09:35:14;22.40;42.60
11491;DHT22;5802;52.832;4.758;2023-02-12T09:37:42;22.40;42.60
11491;DHT22;5802;52.832;4.758;2023-02-12T09:40:17;22.40;42.60
11491;DHT22;5802;52.832;4.758;2023-02-12T09:43:00;22.40;42.60
11491;DHT22;5802;52.832;4.758;2023-02-12T09:45:32;22.40;42.60
11491;DHT22;5802;52.832;4.758;2023-02-12T09:48:10;22.40;42.60
11491;DHT22;5802;52.832;4.758;2023-02-12T09:50:46;22.40;42.60
11491;DHT22;5802;52.832;4.758;2023-02-12T09:53:17;22.40;42.60
11491;DHT22;5802;52.832;4.758;2023-02-12T09:55:45;22.40;42.60
11491;DHT22;5802;52.832;4.758;2023-02-12T09:58:14;22.40;42.50
11491;DHT22;5802;52.832;4.758;2023-02-12T10:00:41;22.40;42.60
11491;DHT22;5802;52.832;4.758;2023-02-12T10:03:12;22.40;42.50
11491;DHT22;5802;52.832;4.758;2023-02-12T10:05:41;22.40;42.50
11491;DHT22;5802;52.832;4.758;2023-02-12T10:08:29;22.40;42.50
11491;DHT22;5802;52.832;4.758;2023-02-12T10:11:05;22.40;42.40
11491;DHT22;5802;52.832;4.758;2023-02-12T10:13:45;22.40;42.50
11491;DHT22;5802;52.832;4.758;2023-02-12T10:16:19;22.40;42.60
11491;DHT22;5802;52.832;4.758;2023-02-12T10:19:02;22.40;42.60
11491;DHT22;5802;52.832;4.758;2023-02-12T10:21:41;22.40;42.60
11491;DHT22;5802;52.832;4.758;2023-02-12T10:24:32;22.40;42.60
11491;DHT22;5802;52.832;4.758;2023-02-12T10:27:07;22.40;42.70
11491;DHT22;5802;52.832;4.758;2023-02-12T10:29:38;22.40;42.60
11491;DHT22;5802;52.832;4.758;2023-02-12T10:32:22;22.40;42.50
11491;DHT22;5802;52.832;4.758;2023-02-12T10:34:50;22.40;42.50
11491;DHT22;5802;52.832;4.758;2023-02-12T10:37:25;22.40;42.40
11491;DHT22;5802;52.832;4.758;2023-02-12T10:39:59;22.40;42.40
11491;DHT22;5802;52.832;4.758;2023-02-12T10:42:35;22.40;42.30
11491;DHT22;5802;52.832;4.758;2023-02-12T10:45:04;22.50;42.30
11491;DHT22;5802;52.832;4.758;2023-02-12T10:47:31;22.40;42.20
11491;DHT22;5802;52.832;4.758;2023-02-12T10:49:59;22.40;42.10
11491;DHT22;5802;52.832;4.758;2023-02-12T10:52:35;22.40;42.10
11491;DHT22;5802;52.832;4.758;2023-02-12T10:55:23;22.40;42.10
11491;DHT22;5802;52.832;4.758;2023-02-12T10:57:50;22.50;42.10
11491;DHT22;5802;52.832;4.758;2023-02-12T11:00:24;22.50;42.10
11491;DHT22;5802;52.832;4.758;2023-02-12T11:03:19;22.40;42.00
11491;DHT22;5802;52.832;4.758;2023-02-12T11:05:46;22.50;42.10
11491;DHT22;5802;52.832;4.758;2023-02-12T11:08:32;22.50;42.00
11491;DHT22;5802;52.832;4.758;2023-02-12T11:11:07;22.50;42.00
11491;DHT22;5802;52.832;4.758;2023-02-12T11:13:34;22.50;42.00
11491;DHT22;5802;52.832;4.758;2023-02-12T11:16:02;22.50;42.00
11491;DHT22;5802;52.832;4.758;2023-02-12T11:18:30;22.50;41.90
11491;DHT22;5802;52.832;4.758;2023-02-12T11:21:00;22.50;41.90
11491;DHT22;5802;52.832;4.758;2023-02-12T11:23:29;22.50;41.90
11491;DHT22;5802;52.832;4.758;2023-02-12T11:25:59;22.50;42.00
11491;DHT22;5802;52.832;4.758;2023-02-12T11:28:28;22.50;42.00
11491;DHT22;5802;52.832;4.758;2023-02-12T11:30:57;22.50;42.10
11491;DHT22;5802;52.832;4.758;2023-02-12T11:33:32;22.50;42.10
11491;DHT22;5802;52.832;4.758;2023-02-12T11:36:01;22.50;42.10
11491;DHT22;5802;52.832;4.758;2023-02-12T11:38:33;22.50;42.30
11491;DHT22;5802;52.832;4.758;2023-02-12T11:41:06;22.50;42.30
11491;DHT22;5802;52.832;4.758;2023-02-12T11:43:35;22.50;42.40
11491;DHT22;5802;52.832;4.758;2023-02-12T11:46:04;22.50;42.40
11491;DHT22;5802;52.832;4.758;2023-02-12T11:48:34;22.50;42.50
11491;DHT22;5802;52.832;4.758;2023-02-12T11:51:04;22.50;42.50
11491;DHT22;5802;52.832;4.758;2023-02-12T11:53:36;22.50;42.60
11491;DHT22;5802;52.832;4.758;2023-02-12T11:56:07;22.50;42.60
11491;DHT22;5802;52.832;4.758;2023-02-12T11:58:35;22.50;42.60
11491;DHT22;5802;52.832;4.758;2023-02-12T12:01:06;22.50;42.60
11491;DHT22;5802;52.832;4.758;2023-02-12T12:03:40;22.50;42.60
11491;DHT22;5802;52.832;4.758;2023-02-12T12:06:20;22.50;42.70
11491;DHT22;5802;52.832;4.758;2023-02-12T12:08:52;22.50;42.70
11491;DHT22;5802;52.832;4.758;2023-02-12T12:11:27;22.60;42.80
11491;DHT22;5802;52.832;4.758;2023-02-12T12:14:01;22.50;42.70
11491;DHT22;5802;52.832;4.758;2023-02-12T12:16:33;22.50;42.70
11491;DHT22;5802;52.832;4.758;2023-02-12T12:19:23;22.50;42.80
11491;DHT22;5802;52.832;4.758;2023-02-12T12:22:13;22.50;43.50
11491;DHT22;5802;52.832;4.758;2023-02-12T12:24:47;22.50;43.50
11491;DHT22;5802;52.832;4.758;2023-02-12T12:27:20;22.50;43.50
11491;DHT22;5802;52.832;4.758;2023-02-12T12:30:11;22.50;43.50
11491;DHT22;5802;52.832;4.758;2023-02-12T12:32:42;22.50;43.40
11491;DHT22;5802;52.832;4.758;2023-02-12T12:35:17;22.50;43.50
11491;DHT22;5802;52.832;4.758;2023-02-12T12:37:52;22.50;43.40
11491;DHT22;5802;52.832;4.758;2023-02-12T12:40:40;22.60;43.50
11491;DHT22;5802;52.832;4.758;2023-02-12T12:43:12;22.60;43.40
11491;DHT22;5802;52.832;4.758;2023-02-12T12:46:11;22.60;43.40
11491;DHT22;5802;52.832;4.758;2023-02-12T12:51:53;22.60;43.40
11491;DHT22;5802;52.832;4.758;2023-02-12T12:54:34;22.60;43.40
11491;DHT22;5802;52.832;4.758;2023-02-12T12:57:08;22.60;43.30
11491;DHT22;5802;52.832;4.758;2023-02-12T13:00:05;22.70;43.30
11491;DHT22;5802;52.832;4.758;2023-02-12T13:02:53;22.70;43.20
11491;DHT22;5802;52.832;4.758;2023-02-12T13:05:38;22.70;43.10
11491;DHT22;5802;52.832;4.758;2023-02-12T13:08:20;22.70;43.10
11491;DHT22;5802;52.832;4.758;2023-02-12T13:10:54;22.70;43.00
11491;DHT22;5802;52.832;4.758;2023-02-12T13:13:28;22.80;43.00
11491;DHT22;5802;52.832;4.758;2023-02-12T13:16:04;22.80;42.90
11491;DHT22;5802;52.832;4.758;2023-02-12T13:18:43;22.80;42.90
11491;DHT22;5802;52.832;4.758;2023-02-12T13:21:17;22.80;42.80
11491;DHT22;5802;52.832;4.758;2023-02-12T13:23:53;22.80;42.70
11491;DHT22;5802;52.832;4.758;2023-02-12T13:26:25;22.90;42.70
11491;DHT22;5802;52.832;4.758;2023-02-12T13:28:59;22.90;42.80
11491;DHT22;5802;52.832;4.758;2023-02-12T13:31:28;22.90;42.60
11491;DHT22;5802;52.832;4.758;2023-02-12T13:33:59;22.90;42.60
11491;DHT22;5802;52.832;4.758;2023-02-12T13:36:27;22.90;42.50
11491;DHT22;5802;52.832;4.758;2023-02-12T13:38:56;22.90;42.50
11491;DHT22;5802;52.832;4.758;2023-02-12T13:41:24;23.00;42.50
11491;DHT22;5802;52.832;4.758;2023-02-12T13:44:00;23.00;42.50
11491;DHT22;5802;52.832;4.758;2023-02-12T13:46:38;23.00;42.50
11491;DHT22;5802;52.832;4.758;2023-02-12T13:49:15;23.00;42.50
11491;DHT22;5802;52.832;4.758;2023-02-12T13:51:46;23.00;42.50
11491;DHT22;5802;52.832;4.758;2023-02-12T13:54:33;23.00;42.40
11491;DHT22;5802;52.832;4.758;2023-02-12T13:57:08;23.00;42.40
11491;DHT22;5802;52.832;4.758;2023-02-12T13:59:46;23.00;42.40
11491;DHT22;5802;52.832;4.758;2023-02-12T14:02:44;23.00;42.30
11491;DHT22;5802;52.832;4.758;2023-02-12T14:05:30;23.00;42.20
11491;DHT22;5802;52.832;4.758;2023-02-12T14:08:02;23.00;42.20
11491;DHT22;5802;52.832;4.758;2023-02-12T14:10:34;23.00;42.20
11491;DHT22;5802;52.832;4.758;2023-02-12T14:13:16;23.10;42.10
11491;DHT22;5802;52.832;4.758;2023-02-12T14:15:48;23.10;42.00
11491;DHT22;5802;52.832;4.758;2023-02-12T14:18:31;23.10;42.00
11491;DHT22;5802;52.832;4.758;2023-02-12T14:27:29;23.00;41.90
11491;DHT22;5802;52.832;4.758;2023-02-12T14:30:25;23.00;41.90
11491;DHT22;5802;52.832;4.758;2023-02-12T14:33:18;23.00;42.00
11491;DHT22;5802;52.832;4.758;2023-02-12T14:35:46;23.00;42.00
11491;DHT22;5802;52.832;4.758;2023-02-12T14:41:29;23.00;41.90
11491;DHT22;5802;52.832;4.758;2023-02-12T14:44:45;23.00;41.90
11491;DHT22;5802;52.832;4.758;2023-02-12T14:50:14;23.00;41.80
11491;DHT22;5802;52.832;4.758;2023-02-12T14:52:50;23.00;41.90
11491;DHT22;5802;52.832;4.758;2023-02-12T14:55:22;23.00;41.90
11491;DHT22;5802;52.832;4.758;2023-02-12T14:57:55;23.00;41.90
11491;DHT22;5802;52.832;4.758;2023-02-12T15:00:27;23.00;42.00
11491;DHT22;5802;52.832;4.758;2023-02-12T15:02:59;23.00;42.00
11491;DHT22;5802;52.832;4.758;2023-02-12T15:05:29;23.00;42.00
11491;DHT22;5802;52.832;4.758;2023-02-12T15:07:58;23.00;42.00
11491;DHT22;5802;52.832;4.758;2023-02-12T15:10:28;23.00;42.00
11491;DHT22;5802;52.832;4.758;2023-02-12T15:13:06;23.00;42.00
11491;DHT22;5802;52.832;4.758;2023-02-12T15:15:38;23.00;42.00
11491;DHT22;5802;52.832;4.758;2023-02-12T15:18:13;23.00;42.00
11491;DHT22;5802;52.832;4.758;2023-02-12T15:20:47;23.00;42.00
11491;DHT22;5802;52.832;4.758;2023-02-12T15:23:30;23.00;42.00
11491;DHT22;5802;52.832;4.758;2023-02-12T15:25:58;23.00;42.10
11491;DHT22;5802;52.832;4.758;2023-02-12T15:28:29;23.00;42.00
11491;DHT22;5802;52.832;4.758;2023-02-12T15:31:00;23.00;42.10
11491;DHT22;5802;52.832;4.758;2023-02-12T15:33:29;23.00;42.10
11491;DHT22;5802;52.832;4.758;2023-02-12T15:35:57;23.00;42.10
11491;DHT22;5802;52.832;4.758;2023-02-12T15:38:29;23.00;42.10
11491;DHT22;5802;52.832;4.758;2023-02-12T15:40:58;23.00;42.10
11491;DHT22;5802;52.832;4.758;2023-02-12T15:43:26;23.00;42.10
11491;DHT22;5802;52.832;4.758;2023-02-12T15:45:54;23.00;42.10
11491;DHT22;5802;52.832;4.758;2023-02-12T15:48:31;23.00;42.10
11491;DHT22;5802;52.832;4.758;2023-02-12T15:51:04;23.00;42.10
11491;DHT22;5802;52.832;4.758;2023-02-12T15:53:33;23.00;42.10
11491;DHT22;5802;52.832;4.758;2023-02-12T15:56:00;23.00;42.10
11491;DHT22;5802;52.832;4.758;2023-02-12T15:58:30;23.00;42.10
11491;DHT22;5802;52.832;4.758;2023-02-12T16:01:00;23.00;42.10
11491;DHT22;5802;52.832;4.758;2023-02-12T16:03:31;23.00;42.10
11491;DHT22;5802;52.832;4.758;2023-02-12T16:06:02;23.00;42.10
11491;DHT22;5802;52.832;4.758;2023-02-12T16:08:31;23.00;42.10
11491;DHT22;5802;52.832;4.758;2023-02-12T16:10:59;23.00;42.10
11491;DHT22;5802;52.832;4.758;2023-02-12T16:13:39;23.00;42.10
11491;DHT22;5802;52.832;4.758;2023-02-12T16:16:16;23.00;42.10
11491;DHT22;5802;52.832;4.758;2023-02-12T16:18:46;23.00;42.10
11491;DHT22;5802;52.832;4.758;2023-02-12T16:21:27;23.00;42.10
11491;DHT22;5802;52.832;4.758;2023-02-12T16:23:54;23.00;42.10
11491;DHT22;5802;52.832;4.758;2023-02-12T16:26:23;22.90;42.10
11491;DHT22;5802;52.832;4.758;2023-02-12T16:28:53;22.90;42.10
11491;DHT22;5802;52.832;4.758;2023-02-12T16:31:21;22.90;42.10
11491;DHT22;5802;52.832;4.758;2023-02-12T16:33:53;22.90;42.10